This is the latest recevied weather packets stored in our database for station/object DB0HOL-4. If no packets are shown the sender has not sent any weather packets the latest 10 day(s).
| Time | Temp. | Humidity | Pressure | Rain* | Wind** | Luminosity | Snow |
|---|---|---|---|---|---|---|---|
| 1777730197 | 22.22° C | 44% | 1015.5 hPa | 0 mm | - | 524 W/m² | - |
| 1777728397 | 22.78° C | 47% | 1015.9 hPa | 0 mm | - | 572 W/m² | - |
| 1777726597 | 21.67° C | 47% | 1016.2 hPa | 0 mm | - | 558 W/m² | - |
| 1777724797 | 21.67° C | 48% | 1016.5 hPa | 0 mm | - | 649 W/m² | - |
| 1777722996 | 21.11° C | 47% | 1016.9 hPa | 0 mm | - | 547 W/m² | - |
| 1777721197 | 20.56° C | 45% | 1017.6 hPa | 0 mm | - | 213 W/m² | - |
| 1777719397 | 20° C | 53% | 1017.9 hPa | 0 mm | - | 704 W/m² | - |
| 1777717597 | 18.89° C | 56% | 1018.2 hPa | 0 mm | - | 674 W/m² | - |
| 1777715797 | 18.33° C | 52% | 1018.6 hPa | 0 mm | - | 657 W/m² | - |
| 1777713997 | 17.22° C | 52% | 1018.6 hPa | 0 mm | - | 607 W/m² | - |
| 1777712198 | 16.67° C | 53% | 1018.9 hPa | 0 mm | - | 521 W/m² | - |
| 1777710397 | 16.11° C | 54% | 1018.9 hPa | 0 mm | - | 420 W/m² | - |
| 1777708598 | 15° C | 57% | 1019.3 hPa | 0 mm | - | 311 W/m² | - |
| 1777706797 | 14.44° C | 59% | 1019.3 hPa | 0 mm | - | 542 W/m² | - |
| 1777704997 | 13.33° C | 62% | 1019.3 hPa | 0 mm | - | 450 W/m² | - |
| 1777703197 | 12.22° C | 67% | 1019.6 hPa | 0 mm | - | 525 W/m² | - |
| 1777701397 | 11.11° C | 69% | 1019.6 hPa | 0 mm | - | 390 W/m² | - |
| 1777699598 | 11.11° C | 68% | 1019.6 hPa | 0 mm | - | 264 W/m² | - |
| 1777697797 | 10.56° C | 71% | 1019.6 hPa | 0 mm | - | 130 W/m² | - |
| 1777695997 | 11.67° C | 68% | 1019.6 hPa | 0 mm | - | 12 W/m² | - |
| 1777694198 | 11.67° C | 67% | 1019.9 hPa | 0 mm | - | 0 W/m² | - |
| 1777692398 | 12.22° C | 64% | 1019.9 hPa | 0 mm | - | 0 W/m² | - |
| 1777690602 | 12.78° C | 62% | 1020.3 hPa | 0 mm | - | 0 W/m² | - |
| 1777688797 | 12.78° C | 63% | 1020.3 hPa | 0 mm | - | 0 W/m² | - |
| 1777686998 | 13.33° C | 62% | 1020.6 hPa | 0 mm | - | 0 W/m² | - |
* Rain latest hour (hover to see other rain measurements)
** Current wind speed in m/s (hover to see current wind gust speed)